Latest Weather Observations for Marrangaroo (Defence)

IDN60801

Issued at 10:32 am EDT Friday 19 January 2018 (issued every 30 minutes, with the page automatically refreshed every 10 minutes)

About weather observations | Map of weather stations | Latest weather observations for NSW | Other Formats
Station Details ID: 063308 Name: MARRANGAROO (DEFENCE) Lat: -33.43 Lon: 150.13 Height: 0.0 m
Data from the previous 72 hours. | See also: Recent months for locations in New South Wales
Date/Time
EDT
Temp
°C
App
Temp
°C
Dew
Point
°C
Rel
Hum
%
Delta-T
°C
Wind Press
QNH
hPa
Press
MSL
hPa
Rain since
9am
mm
Dir  Spd
km/h
Gust
km/h
Spd
kts
Gust
kts
19/10:30am 27.7 24.9 3.4 21 - SW 7 13 4 7 - - 0.0
19/10:00am 26.9 24.9 4.6 24 - SW 4 13 2 7 - - 0.0
19/09:30am 25.3 24.7 7.4 32 - CALM 0 2 0 1 - - 0.0
19/09:00am 23.3 22.7 7.4 36 - CALM 0 0 0 0 - - 0.0
19/08:30am 18.3 18.1 9.1 55 - CALM 0 0 0 0 - - 0.0
19/08:00am 14.5 13.9 7.3 62 - CALM 0 0 0 0 - - 0.0
19/07:30am 10.6 9.9 6.9 78 - CALM 0 0 0 0 - - 0.0
19/07:00am 7.8 6.6 4.7 81 - CALM 0 2 0 1 - - 0.0
19/06:30am 6.2 5.0 4.5 89 - CALM 0 0 0 0 - - 0.0
19/06:00am 6.3 5.1 4.6 89 - CALM 0 0 0 0 - - 0.0
19/05:30am 6.7 5.6 4.9 88 - CALM 0 0 0 0 - - 0.0
19/05:00am 7.0 5.8 4.8 86 - CALM 0 2 0 1 - - 0.0
19/04:30am 7.3 6.2 5.1 86 - CALM 0 0 0 0 - - 0.0
19/04:00am 7.5 6.4 5.3 86 - CALM 0 0 0 0 - - 0.0
19/03:30am 8.1 7.1 5.6 84 - CALM 0 0 0 0 - - 0.0
19/03:00am 8.5 7.4 5.3 80 - CALM 0 0 0 0 - - 0.0
19/02:30am 9.7 8.8 6.1 78 - CALM 0 0 0 0 - - 0.0
19/02:00am 9.8 8.9 6.0 77 - CALM 0 0 0 0 - - 0.0
19/01:30am 10.1 9.3 6.3 77 - CALM 0 0 0 0 - - 0.0
19/01:00am 10.4 9.4 5.8 73 - CALM 0 0 0 0 - - 0.0
19/12:30am 11.2 10.2 5.5 68 - CALM 0 0 0 0 - - 0.0
19/12:00am 12.6 11.7 6.0 64 - CALM 0 0 0 0 - - 0.0
 
Date/Time
EDT
Temp
°C
App
Temp
°C
Dew
Point
°C
Rel
Hum
%
Delta-T
°C
Wind Press
QNH
hPa
Press
MSL
hPa
Rain since
9am
mm
Dir  Spd
km/h
Gust
km/h
Spd
kts
Gust
kts
18/11:30pm 13.6 12.6 5.7 59 - CALM 0 4 0 2 - - 0.0
18/11:00pm 14.9 14.0 6.0 55 - CALM 0 0 0 0 - - 0.0
18/10:30pm 17.2 15.5 4.2 42 - ENE 2 6 1 3 - - 0.0
18/10:00pm 18.9 17.1 5.4 41 - E 4 7 2 4 - - 0.0
18/09:30pm 19.3 18.3 5.4 40 - CALM 0 4 0 2 - - 0.0
18/09:00pm 20.8 19.0 5.6 37 - ENE 4 6 2 3 - - 0.0
18/08:30pm 22.6 20.5 6.0 34 - ESE 6 9 3 5 - - 0.0
18/08:00pm 24.5 22.1 4.3 27 - E 6 11 3 6 - - 0.0
18/07:30pm 26.3 22.8 3.5 23 - E 11 20 6 11 - - 0.0
18/07:00pm 27.6 24.2 4.0 22 - E 11 22 6 12 - - 0.0
18/06:30pm 28.6 25.2 4.2 21 - E 11 20 6 11 - - 0.0
18/06:00pm 29.6 26.4 2.8 18 - ENE 9 20 5 11 - - 0.0
18/05:30pm 30.8 28.4 2.1 16 - WSW 4 9 2 5 - - 0.0
18/05:00pm 30.0 26.9 1.5 16 - N 7 13 4 7 - - 0.0
18/04:30pm 30.0 26.4 0.6 15 - N 9 17 5 9 - - 0.0
18/04:00pm 29.9 27.5 -0.5 14 - E 2 6 1 3 - - 0.0
18/03:30pm 30.0 26.0 0.6 15 - SW 11 20 6 11 - - 0.0
18/03:00pm 29.3 26.2 0.0 15 - ESE 6 17 3 9 - - 0.0
18/02:30pm 28.6 25.5 -2.5 13 - WSW 4 19 2 10 - - 0.0
18/02:00pm 28.4 24.5 -4.9 11 - WSW 7 11 4 6 - - 0.0
18/01:30pm 27.9 24.1 -4.1 12 - WSW 7 17 4 9 - - 0.0
18/01:00pm 27.5 24.2 0.3 17 - W 7 17 4 9 - - 0.0
18/12:30pm 26.6 22.5 -3.1 14 - SW 9 17 5 9 - - 0.0
18/12:00pm 26.7 23.5 3.2 22 - SW 9 17 5 9 - - 0.0
18/11:30am 26.1 22.7 2.1 21 - SW 9 17 5 9 - - 0.0
18/11:00am 24.6 21.9 2.7 24 - SW 6 15 3 8 - - 0.0
18/10:30am 24.1 21.9 3.4 26 - E 4 9 2 5 - - 0.0
18/10:00am 22.0 20.4 4.6 32 - NNW 2 6 1 3 - - 0.0
18/09:30am 20.4 18.8 2.3 30 - CALM 0 0 0 0 - - 0.0
18/09:00am 18.3 17.8 8.0 51 - CALM 0 0 0 0 - - 0.0
18/08:30am 14.6 14.2 8.3 66 - CALM 0 2 0 1 - - 0.0
18/08:00am 10.7 10.1 7.6 81 - CALM 0 0 0 0 - - 0.0
18/07:30am 7.5 6.9 7.2 98 - CALM 0 0 0 0 - - 0.0
18/07:00am 5.2 4.1 5.1 99 - CALM 0 0 0 0 - - 0.0
18/06:30am 4.3 3.0 4.0 98 - CALM 0 0 0 0 - - 0.0
18/06:00am 4.5 3.2 4.2 98 - CALM 0 0 0 0 - - 0.0
18/05:30am 4.4 3.0 3.8 96 - CALM 0 0 0 0 - - 0.0
18/05:00am 5.0 3.8 4.6 97 - CALM 0 2 0 1 - - 0.0
18/04:30am 5.6 4.2 5.3 98 - ENE 2 4 1 2 - - 0.0
18/04:00am 5.2 3.9 4.3 94 - CALM 0 0 0 0 - - 0.0
18/03:30am 6.1 4.7 5.4 95 - ENE 2 4 1 2 - - 0.0
18/03:00am 6.3 5.3 5.7 96 - CALM 0 2 0 1 - - 0.0
18/02:30am 6.5 5.5 5.6 94 - CALM 0 0 0 0 - - 0.0
18/02:00am 7.5 6.7 6.4 93 - CALM 0 0 0 0 - - 0.0
18/01:30am 7.9 7.0 5.9 87 - CALM 0 2 0 1 - - 0.0
18/01:00am 8.4 7.6 6.5 88 - CALM 0 0 0 0 - - 0.0
18/12:30am 9.6 8.9 7.0 84 - CALM 0 0 0 0 - - 0.0
18/12:00am 10.0 9.3 6.9 81 - CALM 0 0 0 0 - - 0.0
 
Date/Time
EDT
Temp
°C
App
Temp
°C
Dew
Point
°C
Rel
Hum
%
Delta-T
°C
Wind Press
QNH
hPa
Press
MSL
hPa
Rain since
9am
mm
Dir  Spd
km/h
Gust
km/h
Spd
kts
Gust
kts
17/11:30pm 11.2 10.6 7.3 77 - CALM 0 4 0 2 - - 0.0
17/11:00pm 11.7 10.4 7.8 77 - E 4 9 2 5 - - 0.0
17/10:30pm 12.1 11.6 7.8 75 - CALM 0 2 0 1 - - 0.0
17/10:00pm 13.6 12.6 7.4 66 - NNE 2 6 1 3 - - 0.0
17/09:30pm 15.7 14.5 8.2 61 - NE 4 7 2 4 - - 0.0
17/09:00pm 16.1 15.2 7.8 58 - ENE 2 6 1 3 - - 0.0
17/08:30pm 17.4 15.6 8.0 54 - ESE 7 13 4 7 - - 0.0
17/08:00pm 18.6 16.7 7.7 49 - E 7 19 4 10 - - 0.0
17/07:30pm 20.5 17.9 6.1 39 - E 9 17 5 9 - - 0.0
17/07:00pm 22.5 19.7 5.0 32 - SE 9 15 5 8 - - 0.0
17/06:30pm 23.5 20.7 3.4 27 - SE 7 11 4 6 - - 0.0
17/06:00pm 23.8 21.1 2.6 25 - SSE 6 17 3 9 - - 0.0
17/05:30pm 24.1 21.4 2.9 25 - ESE 6 11 3 6 - - 0.0
17/05:00pm 24.1 21.0 1.1 22 - SSE 7 17 4 9 - - 0.0
17/04:30pm 24.4 22.3 3.7 26 - S 4 15 2 8 - - 0.0
17/04:00pm 23.4 19.4 0.5 22 - SSE 11 19 6 10 - - 0.0
17/03:30pm 23.8 20.8 2.0 24 - SSE 7 13 4 7 - - 0.0
17/03:00pm 24.1 20.9 2.9 25 - SSW 9 15 5 8 - - 0.0
17/02:30pm 22.3 18.9 -0.4 22 - ESE 7 20 4 11 - - 0.0
17/02:00pm 22.8 18.7 0.0 22 - S 11 24 6 13 - - 0.0
17/01:30pm 21.8 18.3 -1.5 21 - SSE 7 13 4 7 - - 0.0
17/01:00pm 21.2 17.4 2.0 28 - SW 11 20 6 11 - - 0.0
17/12:30pm 20.4 17.6 3.2 32 - S 7 17 4 9 - - 0.0
17/12:00pm 19.5 16.5 1.0 29 - ESE 6 15 3 8 - - 0.0
17/11:30am 18.7 16.0 2.5 34 - SE 6 9 3 5 - - 0.0
17/11:00am 17.9 15.2 3.8 39 - SE 7 13 4 7 - - 0.0
17/10:30am 17.0 14.2 5.3 46 - SE 9 17 5 9 - - 0.0
17/10:00am 15.9 13.0 4.9 48 - SSE 9 17 5 9 - - 0.0
17/09:30am 14.5 12.3 6.1 57 - SE 7 15 4 8 - - 0.0
17/09:00am 13.5 11.5 6.1 61 - SSE 6 11 3 6 - - 0.0
17/08:30am 13.1 11.2 6.9 66 - SSE 6 11 3 6 - - 0.0
17/08:00am 11.3 10.2 7.0 75 - N 2 6 1 3 - - 0.0
17/07:30am 10.4 9.8 7.6 83 - CALM 0 0 0 0 - - 0.0
17/07:00am 7.4 6.7 7.0 97 - CALM 0 0 0 0 - - 0.0
17/06:30am 5.7 4.6 5.3 97 - CALM 0 0 0 0 - - 0.0
17/06:00am 5.8 4.7 5.1 95 - CALM 0 0 0 0 - - 0.0
17/05:30am 6.9 5.9 5.8 93 - CALM 0 0 0 0 - - 0.0
17/05:00am 8.1 7.2 5.9 86 - CALM 0 0 0 0 - - 0.0
17/04:30am 9.8 8.7 6.7 81 - E 2 6 1 3 - - 0.0
17/04:00am 10.5 9.5 7.2 80 - SSE 2 6 1 3 - - 0.0
17/03:30am 10.7 9.8 7.6 81 - WSW 2 6 1 3 - - 0.0
17/03:00am 11.1 10.2 7.8 80 - NE 2 6 1 3 - - 0.0
17/02:30am 11.3 10.5 8.2 81 - S 2 6 1 3 - - 0.0
17/02:00am 11.4 10.3 8.3 81 - SSE 4 11 2 6 - - 0.0
17/01:30am 11.5 9.9 8.2 80 - SE 6 13 3 7 - - 0.0
17/01:00am 11.6 10.6 8.8 83 - SSW 4 9 2 5 - - 0.0
17/12:30am 10.6 10.3 8.7 88 - CALM 0 0 0 0 - - 0.0
17/12:00am 10.1 9.8 8.5 90 - CALM 0 6 0 3 - - 0.0
 
Date/Time
EDT
Temp
°C
App
Temp
°C
Dew
Point
°C
Rel
Hum
%
Delta-T
°C
Wind Press
QNH
hPa
Press
MSL
hPa
Rain since
9am
mm
Dir  Spd
km/h
Gust
km/h
Spd
kts
Gust
kts
16/11:30pm 10.2 9.1 8.3 88 - NE 4 7 2 4 - - 0.0
16/11:00pm 10.5 9.7 8.1 85 - NE 2 6 1 3 - - 0.0
16/10:30pm 11.1 9.5 8.1 82 - NE 6 11 3 6 - - 0.0
16/10:00pm 11.8 10.1 7.5 75 - ENE 6 13 3 7 - - 0.0
16/09:30pm 12.7 11.6 6.7 67 - NE 2 7 1 4 - - 0.0
16/09:00pm 13.3 11.3 6.9 65 - ESE 7 13 4 7 - - 0.0
16/08:30pm 14.1 12.5 6.5 60 - E 4 11 2 6 - - 0.0
16/08:00pm 15.3 12.8 6.6 56 - ESE 9 20 5 11 - - 0.0
16/07:30pm 16.6 13.8 7.0 53 - E 11 20 6 11 - - 0.0
16/07:00pm 18.0 15.2 7.1 49 - ESE 11 19 6 10 - - 0.0
16/06:30pm 19.2 16.1 5.6 41 - SE 11 19 6 10 - - 0.0
16/06:00pm 19.6 17.1 6.4 42 - S 9 17 5 9 - - 0.0
16/05:30pm 20.2 17.9 4.7 36 - SE 6 11 3 6 - - 0.0
16/05:00pm 20.7 17.7 5.9 38 - SSE 11 19 6 10 - - 0.0
16/04:30pm 20.6 17.9 5.8 38 - S 9 19 5 10 - - 0.0
16/04:00pm 20.0 17.3 5.6 39 - SE 9 20 5 11 - - 0.0
16/03:30pm 20.5 18.1 7.2 42 - SSE 9 22 5 12 - - 0.0
16/03:00pm 19.4 17.0 6.8 44 - S 9 24 5 13 - - 0.0
16/02:30pm 19.1 15.8 6.2 43 - SE 13 22 7 12 - - 0.0
16/02:00pm 19.6 17.6 7.0 44 - ESE 7 17 4 9 - - 0.0
16/01:30pm 18.2 15.3 6.7 47 - ESE 11 24 6 13 - - 0.0
16/01:00pm 17.7 14.0 4.6 42 - SE 13 24 7 13 - - 0.0
16/12:30pm 17.2 13.3 5.2 45 - SSE 15 32 8 17 - - 0.0
16/12:00pm 16.4 13.0 6.0 50 - SSE 13 24 7 13 - - 0.0
16/11:30am 16.2 12.8 5.8 50 - SSE 13 24 7 13 - - 0.0
16/11:00am 15.6 12.4 5.2 50 - ESE 11 22 6 12 - - 0.0

Other Formats:

Comma delimited format used in spreadsheet applications
http://www.bom.gov.au/fwo/IDN60801/IDN60801.95686.axf

JavaScript Object Notation format (JSON) in row-major order
http://www.bom.gov.au/fwo/IDN60801/IDN60801.95686.json